Time;durP1;ratioP1;P1;durP2;ratioP2;P2;SDS_P1;SDS_P2;PMS_P1;PMS_P2;Temp;Humidity;BMP_temperature;BMP_pressure;BME280_temperature;BME280_humidity;BME280_pressure;Samples;Min_cycle;Max_cycle;Signal;HPM_P1;HPM_P2
2021/04/17 00:01:41;;;;;;;;;;;;;;;8.45;57.28;102074.63;5055246;28;19928;-70
2021/04/17 00:04:08;;;;;;;;;;;;;;;8.54;56.92;102076.59;5020281;28;19980;-69
2021/04/17 00:06:36;;;;;;;;;;;;;;;8.39;57.53;102079.25;5055249;28;19924;-69
2021/04/17 00:09:05;;;;;;;;;;;;;;;8.02;58.76;102071.03;5036731;28;19920;-67
2021/04/17 00:11:32;;;;;;;;;;;;;;;8.13;58.78;102071.09;5054365;28;19988;-69
2021/04/17 00:14:03;;;;;;;;;;;;;;;8.31;57.72;102056.97;5054056;28;19928;-66
2021/04/17 00:16:30;;;;;;;;;;;;;;;8.20;57.66;102061.53;5036460;28;19921;-68
2021/04/17 00:19:14;;;;;;;;;;;;;;;8.07;58.06;102064.75;5054518;28;19940;-68
2021/04/17 00:21:41;;;;;;;;;;;;;;;8.07;58.19;102066.66;5054846;28;19928;-68
2021/04/17 00:24:08;;;;;;;;;;;;;;;8.22;58.08;102069.50;5037951;28;19921;-70
2021/04/17 00:26:35;;;;;;;;;;;;;;;8.24;58.00;102053.63;5037408;28;19921;-69
2021/04/17 00:29:03;;;;;;;;;;;;;;;8.16;58.08;102057.66;5054996;28;19927;-70
2021/04/17 00:31:30;;;;;;;;;;;;;;;8.06;58.28;102059.50;5053395;28;19928;-68
2021/04/17 00:33:56;;;;;;;;;;;;;;;8.11;58.00;102056.84;5054541;28;19928;-69
2021/04/17 00:36:23;;;;;;;;;;;;;;;7.78;59.08;102057.94;5053385;28;19920;-67
2021/04/17 00:38:50;;;;;;;;;;;;;;;7.83;59.06;102053.31;5054266;28;19921;-68
2021/04/17 00:41:16;;;;;;;;;;;;;;;7.80;59.29;102061.25;5054370;28;19928;-68
2021/04/17 00:43:43;;;;;;;;;;;;;;;7.68;59.36;102060.59;5053878;28;19927;-67
2021/04/17 00:46:10;;;;;;;;;;;;;;;7.89;58.96;102062.44;5054228;28;19921;-68
2021/04/17 00:48:39;;;;;;;;;;;;;;;7.96;58.71;102057.53;5036117;28;19921;-69
2021/04/17 00:51:06;;;;;;;;;;;;;;;7.88;58.45;102053.38;5032920;28;19921;-69
2021/04/17 00:53:38;;;;;;;;;;;;;;;7.91;58.60;102052.81;5034249;28;19921;-70
2021/04/17 00:56:06;;;;;;;;;;;;;;;8.16;57.70;102052.19;5048779;28;20386;-68
2021/04/17 00:58:33;;;;;;;;;;;;;;;7.76;59.11;102051.88;5016241;28;19921;-69
2021/04/17 01:01:01;;;;;;;;;;;;;;;7.93;58.84;102050.66;5016675;28;19920;-69
2021/04/17 01:03:47;;;;;;;;;;;;;;;7.55;59.52;102045.41;5016878;28;19928;-67
2021/04/17 01:06:25;;;;;;;;;;;;;;;7.49;60.13;102049.22;5050157;28;20380;-70
2021/04/17 01:09:03;;;;;;;;;;;;;;;7.66;59.66;102044.41;5016894;28;19921;-71
2021/04/17 01:11:37;;;;;;;;;;;;;;;7.48;60.13;102055.75;5017092;28;19920;-69
2021/04/17 01:14:06;;;;;;;;;;;;;;;7.37;61.22;102048.56;5016979;28;19928;-68
2021/04/17 01:16:33;;;;;;;;;;;;;;;7.53;60.54;102046.78;5033947;28;19921;-71
2021/04/17 01:19:00;;;;;;;;;;;;;;;7.25;61.37;102039.66;5016003;28;19921;-68
2021/04/17 01:21:30;;;;;;;;;;;;;;;7.55;61.32;102044.59;5016364;28;19928;-68
2021/04/17 01:24:00;;;;;;;;;;;;;;;7.41;61.43;102038.69;5016902;28;20365;-70
2021/04/17 01:26:28;;;;;;;;;;;;;;;7.61;60.58;102040.81;5015898;28;19928;-68
2021/04/17 01:28:55;;;;;;;;;;;;;;;7.82;60.28;102043.47;5016988;28;19925;-69
2021/04/17 01:31:29;;;;;;;;;;;;;;;7.42;61.25;102042.28;5017274;28;19921;-70
2021/04/17 01:33:57;;;;;;;;;;;;;;;7.56;60.74;102036.13;5034088;28;19921;-70
2021/04/17 01:36:28;;;;;;;;;;;;;;;7.39;61.41;102034.59;5000205;28;19921;-69
2021/04/17 01:38:55;;;;;;;;;;;;;;;7.48;61.60;102039.31;5016264;28;20300;-68
2021/04/17 01:41:22;;;;;;;;;;;;;;;7.52;61.00;102040.47;5015661;28;20476;-69
2021/04/17 01:43:50;;;;;;;;;;;;;;;7.34;61.98;102031.81;5032441;28;19921;-68
2021/04/17 01:46:22;;;;;;;;;;;;;;;7.37;61.54;102036.75;5015958;28;19921;-70
2021/04/17 01:48:53;;;;;;;;;;;;;;;7.36;61.50;102035.09;5033715;28;20416;-69
2021/04/17 01:51:24;;;;;;;;;;;;;;;7.68;61.25;102039.50;5036447;28;19944;-68
2021/04/17 01:53:51;;;;;;;;;;;;;;;7.34;62.19;102042.75;5035311;28;19920;-69
2021/04/17 01:56:18;;;;;;;;;;;;;;;7.49;61.42;102038.25;5068500;28;19920;-69
2021/04/17 01:58:45;;;;;;;;;;;;;;;7.21;62.55;102035.78;5034488;28;19928;-70
2021/04/17 02:01:29;;;;;;;;;;;;;;;7.28;62.14;102039.16;5038006;28;19920;-69
2021/04/17 02:03:56;;;;;;;;;;;;;;;6.75;64.39;102037.19;5052871;28;19920;-69
2021/04/17 02:06:22;;;;;;;;;;;;;;;7.01;63.98;102037.50;5052766;28;19943;-70
2021/04/17 02:09:07;;;;;;;;;;;;;;;7.00;63.44;102052.25;5052910;28;19916;-69
2021/04/17 02:11:34;;;;;;;;;;;;;;;6.93;64.09;102046.16;5052926;28;19951;-69
2021/04/17 02:14:01;;;;;;;;;;;;;;;6.94;63.53;102045.09;5034165;28;19927;-68
2021/04/17 02:16:29;;;;;;;;;;;;;;;6.69;64.70;102042.88;5049242;28;20303;-68
2021/04/17 02:23:35;;;;;;;;;;;;;;;6.64;65.36;102043.63;5052124;28;19943;-67
2021/04/17 02:26:02;;;;;;;;;;;;;;;6.95;63.79;102042.09;5018469;28;19921;-67
2021/04/17 02:28:29;;;;;;;;;;;;;;;7.01;63.64;102040.22;5034973;28;19939;-69
2021/04/17 02:30:57;;;;;;;;;;;;;;;6.70;65.06;102041.78;5052469;28;19921;-70
2021/04/17 02:37:41;;;;;;;;;;;;;;;6.84;64.44;102032.09;5054192;28;19923;-68
2021/04/17 02:40:09;;;;;;;;;;;;;;;6.60;64.93;102031.56;5055983;28;19920;-67
2021/04/17 02:42:38;;;;;;;;;;;;;;;6.91;64.38;102020.94;5056328;28;19921;-68
2021/04/17 02:45:05;;;;;;;;;;;;;;;6.88;64.24;102029.66;5053401;28;20292;-67
2021/04/17 02:47:32;;;;;;;;;;;;;;;7.08;63.65;102035.38;5056202;28;20300;-69
2021/04/17 02:49:59;;;;;;;;;;;;;;;6.96;64.29;102032.78;5055510;28;19996;-68
2021/04/17 02:52:43;;;;;;;;;;;;;;;6.92;64.21;102028.06;5055998;28;19917;-67
2021/04/17 02:55:10;;;;;;;;;;;;;;;6.91;64.20;102029.16;5055282;28;19921;-70
2021/04/17 02:57:37;;;;;;;;;;;;;;;7.07;63.80;102025.50;5055871;28;19928;-69
2021/04/17 03:00:05;;;;;;;;;;;;;;;7.18;62.89;102027.25;5037937;28;19923;-68
2021/04/17 03:02:32;;;;;;;;;;;;;;;7.13;62.77;102019.00;5055917;28;19921;-72
2021/04/17 03:04:59;;;;;;;;;;;;;;;6.99;63.38;102020.47;5056436;28;20360;-70
2021/04/17 03:07:26;;;;;;;;;;;;;;;7.28;62.63;102019.97;5039099;28;19921;-69
2021/04/17 03:09:53;;;;;;;;;;;;;;;7.22;62.36;102023.72;5038601;28;19928;-68
2021/04/17 03:12:19;;;;;;;;;;;;;;;7.01;62.83;102027.34;5056340;28;19921;-68
2021/04/17 03:14:46;;;;;;;;;;;;;;;7.01;63.13;102029.28;5033752;28;19921;-71
2021/04/17 03:17:16;;;;;;;;;;;;;;;7.04;63.24;102028.75;5055332;28;20373;-72
2021/04/17 03:19:43;;;;;;;;;;;;;;;7.07;62.84;102034.53;5037763;28;19921;-68
2021/04/17 03:22:09;;;;;;;;;;;;;;;7.20;62.40;102033.31;5037791;28;19920;-68
2021/04/17 03:24:36;;;;;;;;;;;;;;;6.98;62.66;102027.03;5038233;28;19920;-69
2021/04/17 03:27:04;;;;;;;;;;;;;;;6.79;63.87;102032.88;5037270;28;19928;-68
2021/04/17 03:29:51;;;;;;;;;;;;;;;6.75;64.11;102022.66;5045090;28;19920;-70
2021/04/17 03:32:37;;;;;;;;;;;;;;;6.58;64.71;102022.75;5062972;28;19921;-67
2021/04/17 03:35:05;;;;;;;;;;;;;;;6.71;64.50;102022.34;5037852;28;19928;-68
2021/04/17 03:37:32;;;;;;;;;;;;;;;6.77;63.99;102015.03;5055786;28;19921;-69
2021/04/17 03:39:59;;;;;;;;;;;;;;;7.02;63.30;102019.97;5055626;28;19927;-69
2021/04/17 03:42:25;;;;;;;;;;;;;;;7.02;63.26;102011.75;5055597;28;19921;-68
2021/04/17 03:44:55;;;;;;;;;;;;;;;7.32;62.05;102014.78;5055161;28;19931;-68
2021/04/17 03:47:21;;;;;;;;;;;;;;;7.26;62.49;102013.06;5069622;28;19932;-68
2021/04/17 03:49:54;;;;;;;;;;;;;;;7.01;62.88;102019.13;5053427;28;20326;-68
2021/04/17 03:52:21;;;;;;;;;;;;;;;6.97;63.06;102017.16;5054661;28;19928;-69
2021/04/17 03:54:48;;;;;;;;;;;;;;;6.74;63.88;102021.88;5055098;28;20260;-68
2021/04/17 03:57:15;;;;;;;;;;;;;;;6.39;65.03;102024.16;5070421;28;19925;-66
2021/04/17 03:59:42;;;;;;;;;;;;;;;6.43;65.45;102027.22;5036850;28;19920;-68
2021/04/17 04:02:09;;;;;;;;;;;;;;;6.14;66.03;102023.81;5055296;28;19921;-69
2021/04/17 04:08:54;;;;;;;;;;;;;;;6.51;65.28;102022.13;5055004;28;19916;-70
2021/04/17 04:11:20;;;;;;;;;;;;;;;6.45;65.75;102023.13;5054801;28;20375;-69
2021/04/17 04:13:47;;;;;;;;;;;;;;;6.48;65.26;102019.91;5037078;28;20251;-68
2021/04/17 04:16:14;;;;;;;;;;;;;;;6.65;64.52;102022.56;5053952;28;20283;-71
2021/04/17 04:18:41;;;;;;;;;;;;;;;6.49;65.43;102027.03;5069745;28;19920;-69
2021/04/17 04:21:08;;;;;;;;;;;;;;;6.59;65.15;102021.66;5054837;28;19928;-69
2021/04/17 04:23:34;;;;;;;;;;;;;;;6.60;64.93;102028.81;5055439;28;19932;-68
2021/04/17 04:26:01;;;;;;;;;;;;;;;6.55;65.50;102031.50;5055203;28;19928;-68
2021/04/17 04:28:28;;;;;;;;;;;;;;;6.21;66.10;102038.13;5054636;28;19921;-67
2021/04/17 04:30:56;;;;;;;;;;;;;;;6.24;66.37;102043.09;5054554;28;19924;-69
2021/04/17 04:33:28;;;;;;;;;;;;;;;6.46;65.92;102040.38;5054458;28;19921;-68
2021/04/17 04:35:58;;;;;;;;;;;;;;;6.21;66.30;102040.88;5054861;28;20252;-68
2021/04/17 04:38:24;;;;;;;;;;;;;;;6.32;65.96;102045.41;5054785;28;19920;-68
2021/04/17 04:40:51;;;;;;;;;;;;;;;6.40;65.78;102041.38;5054420;28;19929;-70
2021/04/17 04:43:19;;;;;;;;;;;;;;;6.31;66.01;102049.22;5038293;28;19928;-68
2021/04/17 04:45:45;;;;;;;;;;;;;;;6.24;66.09;102042.28;5054785;28;20363;-68
2021/04/17 04:48:13;;;;;;;;;;;;;;;6.49;65.79;102042.59;5054244;28;19921;-68
2021/04/17 04:50:40;;;;;;;;;;;;;;;5.94;66.99;102048.13;5054071;28;19943;-68
2021/04/17 04:53:07;;;;;;;;;;;;;;;6.12;67.27;102045.09;5053829;28;19921;-67
2021/04/17 04:55:36;;;;;;;;;;;;;;;6.21;66.52;102051.81;5036979;28;19921;-69
2021/04/17 04:58:03;;;;;;;;;;;;;;;6.43;66.36;102052.66;5053753;28;20303;-67
2021/04/17 05:00:32;;;;;;;;;;;;;;;6.33;66.15;102054.44;5052203;28;20371;-68
2021/04/17 05:02:59;;;;;;;;;;;;;;;6.33;66.64;102047.06;5054078;28;20319;-66
2021/04/17 05:05:26;;;;;;;;;;;;;;;6.40;66.02;102055.91;5036283;28;19928;-69
2021/04/17 05:07:52;;;;;;;;;;;;;;;6.71;64.63;102041.53;5068795;28;19928;-69
2021/04/17 05:10:19;;;;;;;;;;;;;;;6.25;66.36;102052.13;5068981;28;19921;-70
2021/04/17 05:12:46;;;;;;;;;;;;;;;6.24;66.67;102053.22;5054001;28;20356;-69
2021/04/17 05:15:12;;;;;;;;;;;;;;;6.23;66.79;102055.13;5053871;28;19928;-69
2021/04/17 05:17:39;;;;;;;;;;;;;;;5.96;67.87;102056.09;5053602;28;20283;-71
2021/04/17 05:24:18;;;;;;;;;;;;;;;6.28;67.27;102060.66;5052808;28;19921;-71
2021/04/17 05:26:45;;;;;;;;;;;;;;;6.00;68.10;102060.00;5035453;28;19931;-69
2021/04/17 05:29:11;;;;;;;;;;;;;;;5.62;69.66;102061.53;5035705;28;19921;-70
2021/04/17 05:31:40;;;;;;;;;;;;;;;5.97;68.69;102055.84;5052974;28;19921;-69
2021/04/17 05:34:07;;;;;;;;;;;;;;;6.04;68.70;102059.22;5053416;28;20273;-68
2021/04/17 05:36:35;;;;;;;;;;;;;;;6.01;68.70;102059.72;5042430;28;19932;-67
2021/04/17 05:39:03;;;;;;;;;;;;;;;6.04;68.29;102061.13;5053132;28;19920;-70
2021/04/17 05:41:30;;;;;;;;;;;;;;;6.05;68.49;102063.59;5018208;28;19927;-69
2021/04/17 05:43:57;;;;;;;;;;;;;;;6.13;67.85;102065.09;5052828;28;19928;-68
2021/04/17 05:46:24;;;;;;;;;;;;;;;6.07;68.42;102066.09;5053193;28;20384;-69
2021/04/17 05:49:09;;;;;;;;;;;;;;;6.22;68.15;102066.31;5037642;28;20343;-68
2021/04/17 05:51:54;;;;;;;;;;;;;;;5.90;69.39;102065.28;5053268;28;19923;-68
2021/04/17 05:54:33;;;;;;;;;;;;;;;5.84;69.03;102072.56;5053224;28;19927;-68
2021/04/17 05:56:59;;;;;;;;;;;;;;;5.52;70.39;102072.31;5035129;28;19928;-72
2021/04/17 05:59:26;;;;;;;;;;;;;;;5.64;70.33;102077.69;5046660;28;20291;-69
2021/04/17 06:01:52;;;;;;;;;;;;;;;5.64;70.35;102069.47;5052534;28;19921;-69
2021/04/17 06:04:19;;;;;;;;;;;;;;;5.85;69.83;102068.78;5052862;28;19927;-69
2021/04/17 06:06:46;;;;;;;;;;;;;;;5.90;69.69;102068.84;5052526;28;19920;-70
2021/04/17 06:09:13;;;;;;;;;;;;;;;5.84;69.35;102079.97;5052290;28;19927;-68
2021/04/17 06:11:41;;;;;;;;;;;;;;;5.54;70.44;102067.38;5034449;28;19943;-66
2021/04/17 06:14:08;;;;;;;;;;;;;;;5.56;70.62;102076.19;5051249;28;19921;-69
2021/04/17 06:16:34;;;;;;;;;;;;;;;5.59;70.56;102067.50;5034676;28;20275;-67
2021/04/17 06:19:08;;;;;;;;;;;;;;;5.97;69.43;102076.88;5052098;28;19928;-68
2021/04/17 06:21:38;;;;;;;;;;;;;;;5.80;70.12;102071.41;5052367;28;19921;-68
2021/04/17 06:24:08;;;;;;;;;;;;;;;6.01;69.05;102076.16;5067612;28;19920;-68
2021/04/17 06:26:35;;;;;;;;;;;;;;;6.14;69.08;102073.03;5051506;28;20382;-69
2021/04/17 06:29:22;;;;;;;;;;;;;;;6.01;69.42;102078.03;5045261;28;20300;-68
2021/04/17 06:31:49;;;;;;;;;;;;;;;6.29;68.06;102073.28;5034804;28;19928;-68
2021/04/17 06:34:16;;;;;;;;;;;;;;;5.69;69.95;102069.56;5034312;28;19924;-68
2021/04/17 06:36:46;;;;;;;;;;;;;;;6.08;69.21;102074.06;5052288;28;19925;-68
2021/04/17 06:39:15;;;;;;;;;;;;;;;6.31;68.38;102071.09;5052538;28;19932;-68
2021/04/17 06:41:43;;;;;;;;;;;;;;;6.50;67.45;102069.72;5052366;28;19921;-69
2021/04/17 06:44:09;;;;;;;;;;;;;;;6.07;67.65;102069.66;5052485;28;19952;-68
2021/04/17 06:46:37;;;;;;;;;;;;;;;6.05;68.26;102077.28;5035204;28;19927;-68
2021/04/17 06:49:13;;;;;;;;;;;;;;;5.87;68.79;102068.53;5051880;28;19921;-68
2021/04/17 06:51:42;;;;;;;;;;;;;;;6.17;68.07;102072.53;5052306;28;19951;-68
2021/04/17 06:54:27;;;;;;;;;;;;;;;6.32;67.05;102059.09;5059675;28;20228;-69
2021/04/17 06:56:57;;;;;;;;;;;;;;;6.48;65.98;102068.34;5050466;28;19921;-67
2021/04/17 06:59:24;;;;;;;;;;;;;;;6.37;66.12;102070.09;5033980;28;19921;-68
2021/04/17 07:01:50;;;;;;;;;;;;;;;6.27;66.86;102069.97;5034831;28;19920;-69
2021/04/17 07:04:17;;;;;;;;;;;;;;;6.04;67.45;102072.91;5052499;28;19928;-69
2021/04/17 07:06:44;;;;;;;;;;;;;;;6.34;67.10;102076.09;5051812;28;20379;-69
2021/04/17 07:09:11;;;;;;;;;;;;;;;6.03;67.64;102074.00;5051283;28;19921;-68
2021/04/17 07:11:38;;;;;;;;;;;;;;;6.28;66.81;102070.78;5051727;28;20372;-69
2021/04/17 07:14:16;;;;;;;;;;;;;;;6.27;67.21;102077.34;5051176;28;19921;-67
2021/04/17 07:16:59;;;;;;;;;;;;;;;6.30;67.17;102069.47;5052307;28;19920;-71
2021/04/17 07:19:46;;;;;;;;;;;;;;;6.45;66.84;102074.31;5051845;28;19921;-70
2021/04/17 07:22:19;;;;;;;;;;;;;;;6.68;65.17;102061.19;5052586;28;19932;-71
2021/04/17 07:24:47;;;;;;;;;;;;;;;6.53;65.64;102066.50;5054936;28;19932;-69
2021/04/17 07:27:32;;;;;;;;;;;;;;;6.37;66.29;102067.38;5037839;28;19936;-70
2021/04/17 07:30:01;;;;;;;;;;;;;;;6.61;65.87;102060.56;5055905;28;20355;-72
2021/04/17 07:32:29;;;;;;;;;;;;;;;6.80;64.99;102059.16;5037885;28;20379;-69
2021/04/17 07:35:04;;;;;;;;;;;;;;;6.71;65.35;102062.63;5021792;28;19924;-72
2021/04/17 07:37:30;;;;;;;;;;;;;;;6.63;65.89;102061.16;5055565;28;19921;-70
2021/04/17 07:40:03;;;;;;;;;;;;;;;6.69;65.38;102051.91;5054994;28;19928;-68
2021/04/17 07:42:36;;;;;;;;;;;;;;;7.01;64.89;102051.19;5037425;28;19931;-70
2021/04/17 07:45:21;;;;;;;;;;;;;;;6.91;64.39;102051.06;5055827;28;19928;-70
2021/04/17 07:47:48;;;;;;;;;;;;;;;6.97;64.79;102050.03;5057240;28;19927;-66
2021/04/17 07:50:42;;;;;;;;;;;;;;;7.35;63.23;102058.94;5056076;28;19921;-69
2021/04/17 07:53:24;;;;;;;;;;;;;;;7.19;62.99;102050.81;5037824;28;20375;-70
2021/04/17 07:55:51;;;;;;;;;;;;;;;6.98;63.47;102052.53;5055052;28;20292;-69
2021/04/17 07:58:49;;;;;;;;;;;;;;;6.88;63.60;102043.34;5036353;28;19916;-72
2021/04/17 08:01:25;;;;;;;;;;;;;;;6.77;64.04;102046.00;5054855;28;19927;-68
2021/04/17 08:03:55;;;;;;;;;;;;;;;6.76;64.21;102052.53;5055055;28;20354;-66
2021/04/17 08:06:23;;;;;;;;;;;;;;;6.83;63.93;102049.63;5037062;28;20375;-70
2021/04/17 08:08:55;;;;;;;;;;;;;;;6.66;64.35;102051.56;5054843;28;19921;-71
2021/04/17 08:11:24;;;;;;;;;;;;;;;6.94;63.23;102059.59;5038069;28;19940;-67
2021/04/17 08:13:51;;;;;;;;;;;;;;;7.25;62.03;102066.25;5055167;28;19920;-72
2021/04/17 08:16:18;;;;;;;;;;;;;;;7.19;62.26;102057.13;5055199;28;19920;-69
2021/04/17 08:18:46;;;;;;;;;;;;;;;7.29;62.12;102049.00;5054323;28;19920;-71
2021/04/17 08:21:14;;;;;;;;;;;;;;;7.54;61.23;102040.19;5054266;28;19927;-69
2021/04/17 08:23:43;;;;;;;;;;;;;;;7.40;60.86;102052.66;5055267;28;20395;-69
2021/04/17 08:26:16;;;;;;;;;;;;;;;7.26;61.84;102057.75;5054138;28;19928;-70
2021/04/17 08:28:45;;;;;;;;;;;;;;;7.45;61.56;102041.75;5054868;28;19920;-73
2021/04/17 08:31:21;;;;;;;;;;;;;;;7.60;61.43;102039.97;5054767;28;19920;-71
2021/04/17 08:34:03;;;;;;;;;;;;;;;7.29;61.61;102039.94;5037282;28;19992;-71
2021/04/17 08:36:31;;;;;;;;;;;;;;;7.34;62.29;102043.56;5054305;28;19920;-73
2021/04/17 08:38:58;;;;;;;;;;;;;;;7.74;60.99;102041.19;5036778;28;19931;-69
2021/04/17 08:41:43;;;;;;;;;;;;;;;8.08;60.12;102032.63;5054842;28;19920;-69
2021/04/17 08:44:31;;;;;;;;;;;;;;;8.07;59.38;102044.72;5020354;28;20268;-73
2021/04/17 08:47:01;;;;;;;;;;;;;;;8.16;59.22;102035.72;5036343;28;19921;-67
2021/04/17 08:54:00;;;;;;;;;;;;;;;8.20;58.65;102033.25;5054380;28;19916;-69
2021/04/17 08:56:45;;;;;;;;;;;;;;;8.46;58.58;102035.06;5053935;28;19928;-71
2021/04/17 08:59:11;;;;;;;;;;;;;;;8.65;58.48;102033.50;5053843;28;19920;-68
2021/04/17 09:01:39;;;;;;;;;;;;;;;8.74;57.70;102038.25;5053885;28;20398;-68
2021/04/17 09:04:07;;;;;;;;;;;;;;;8.93;58.10;102030.31;5054291;28;19932;-72
2021/04/17 09:10:54;;;;;;;;;;;;;;;8.84;56.78;102026.44;5055835;28;19923;-69
2021/04/17 09:13:21;;;;;;;;;;;;;;;9.01;56.71;102024.31;5035760;28;19921;-71
2021/04/17 09:15:50;;;;;;;;;;;;;;;9.21;55.66;102018.00;5053592;28;19931;-69
2021/04/17 09:18:32;;;;;;;;;;;;;;;9.05;55.76;102017.16;5053085;28;20359;-68
2021/04/17 09:21:14;;;;;;;;;;;;;;;9.35;55.48;102019.97;5052930;28;19927;-69
2021/04/17 09:23:43;;;;;;;;;;;;;;;9.10;55.50;102012.50;5053539;28;20375;-70
2021/04/17 09:26:30;;;;;;;;;;;;;;;9.40;54.87;102013.63;5052510;28;19953;-67
2021/04/17 09:28:58;;;;;;;;;;;;;;;9.20;55.18;102014.47;5052555;28;19925;-70
2021/04/17 09:31:24;;;;;;;;;;;;;;;9.38;55.73;102013.91;5052975;28;19921;-68
2021/04/17 09:34:18;;;;;;;;;;;;;;;9.58;54.04;102015.84;5035046;28;20376;-68
2021/04/17 09:36:50;;;;;;;;;;;;;;;9.52;53.69;102000.47;5051650;28;19939;-71
2021/04/17 09:39:32;;;;;;;;;;;;;;;9.61;53.32;102010.63;5052510;28;19921;-70
2021/04/17 09:42:00;;;;;;;;;;;;;;;9.53;53.51;102004.84;5053215;28;19921;-68
2021/04/17 09:44:45;;;;;;;;;;;;;;;9.39;53.84;101996.31;5052150;28;20241;-68
2021/04/17 09:47:15;;;;;;;;;;;;;;;9.55;53.89;101997.97;5051038;28;19920;-66
2021/04/17 09:49:44;;;;;;;;;;;;;;;9.50;53.56;101986.97;5052019;28;19943;-66
2021/04/17 09:52:20;;;;;;;;;;;;;;;9.65;53.19;101995.22;5067761;28;19921;-69
2021/04/17 09:54:47;;;;;;;;;;;;;;;9.80;53.23;101992.44;5052930;28;20249;-67
2021/04/17 09:57:38;;;;;;;;;;;;;;;9.88;53.06;101991.91;5052733;28;19917;-68
2021/04/17 10:00:05;;;;;;;;;;;;;;;9.79;53.15;101976.22;5051710;28;19927;-71
2021/04/17 10:02:44;;;;;;;;;;;;;;;9.90;53.38;101975.09;5036834;28;19920;-69
2021/04/17 10:09:30;;;;;;;;;;;;;;;10.10;51.47;101970.41;5052446;28;19917;-68
2021/04/17 10:12:04;;;;;;;;;;;;;;;10.48;50.92;101960.59;5052485;28;20340;-65
2021/04/17 10:14:33;;;;;;;;;;;;;;;10.59;50.32;101964.97;5052588;28;20364;-70
2021/04/17 10:17:02;;;;;;;;;;;;;;;10.55;49.91;101963.09;5052632;28;19928;-72
2021/04/17 10:19:32;;;;;;;;;;;;;;;10.45;50.31;101963.94;5035640;28;19921;-66
2021/04/17 10:26:10;;;;;;;;;;;;;;;10.66;48.39;101950.88;5052104;28;19923;-68
2021/04/17 10:28:54;;;;;;;;;;;;;;;10.66;48.37;101946.19;5050750;28;19923;-69
2021/04/17 10:31:21;;;;;;;;;;;;;;;10.92;48.43;101941.34;5017799;28;20379;-68
2021/04/17 10:33:48;;;;;;;;;;;;;;;10.84;48.49;101930.94;5051797;28;19927;-67
2021/04/17 10:36:16;;;;;;;;;;;;;;;10.78;48.32;101937.59;5051939;28;19937;-68
2021/04/17 10:38:43;;;;;;;;;;;;;;;10.97;48.00;101933.88;5051999;28;19921;-68
2021/04/17 10:41:14;;;;;;;;;;;;;;;11.01;48.02;101928.59;5051797;28;20024;-67
2021/04/17 10:43:40;;;;;;;;;;;;;;;10.99;48.67;101936.34;5052409;28;19921;-66
2021/04/17 10:46:10;;;;;;;;;;;;;;;11.29;47.16;101936.13;5052350;28;19920;-71
2021/04/17 10:48:43;;;;;;;;;;;;;;;11.09;46.82;101927.97;5052152;28;20288;-67
2021/04/17 10:51:11;;;;;;;;;;;;;;;11.09;47.00;101909.53;5051816;28;19921;-66
2021/04/17 10:53:41;;;;;;;;;;;;;;;11.31;46.72;101917.34;5052090;28;19931;-68
2021/04/17 10:56:15;;;;;;;;;;;;;;;11.12;46.16;101913.66;5049818;28;20414;-70
2021/04/17 10:58:42;;;;;;;;;;;;;;;11.13;46.82;101913.34;5034818;28;19961;-69
2021/04/17 11:01:16;;;;;;;;;;;;;;;11.17;46.60;101897.88;5054797;28;19921;-66
2021/04/17 11:03:46;;;;;;;;;;;;;;;11.22;46.50;101888.72;5038745;28;19924;-67
2021/04/17 11:06:18;;;;;;;;;;;;;;;11.39;45.44;101900.16;5056261;28;19927;-68
2021/04/17 11:08:45;;;;;;;;;;;;;;;11.59;44.30;101896.38;5055721;28;19925;-69
2021/04/17 11:11:21;;;;;;;;;;;;;;;11.53;44.75;101892.84;5055352;28;19921;-67
2021/04/17 11:13:54;;;;;;;;;;;;;;;11.40;44.34;101885.28;5054911;28;19924;-68
2021/04/17 11:16:37;;;;;;;;;;;;;;;11.49;45.15;101882.69;5055451;28;19932;-68
2021/04/17 11:19:22;;;;;;;;;;;;;;;11.73;44.61;101884.41;5038459;28;19924;-66
2021/04/17 11:22:10;;;;;;;;;;;;;;;11.78;43.93;101891.78;5052785;28;19920;-69
2021/04/17 11:24:38;;;;;;;;;;;;;;;11.65;44.23;101881.44;5055971;28;20283;-66
2021/04/17 11:27:25;;;;;;;;;;;;;;;11.70;44.02;101882.22;5055782;28;20360;-69
2021/04/17 11:29:52;;;;;;;;;;;;;;;11.82;43.82;101881.81;5055490;28;19921;-66
2021/04/17 11:32:18;;;;;;;;;;;;;;;11.96;43.67;101864.25;5055477;28;19932;-66
2021/04/17 11:34:46;;;;;;;;;;;;;;;11.93;42.19;101872.28;5054533;28;19921;-67
2021/04/17 11:37:30;;;;;;;;;;;;;;;11.91;41.71;101874.50;5054462;28;20125;-67
2021/04/17 11:39:57;;;;;;;;;;;;;;;11.69;41.83;101868.72;5055448;28;20384;-65
2021/04/17 11:42:25;;;;;;;;;;;;;;;11.89;42.65;101857.44;5056075;28;19920;-70
2021/04/17 11:44:53;;;;;;;;;;;;;;;11.96;43.61;101885.53;5055827;28;19920;-64
2021/04/17 11:47:20;;;;;;;;;;;;;;;12.11;43.51;101863.25;5055169;28;19921;-66
2021/04/17 11:49:47;;;;;;;;;;;;;;;11.90;42.45;101862.66;5055584;28;20355;-67
2021/04/17 11:52:14;;;;;;;;;;;;;;;12.04;41.65;101862.78;5055455;28;20299;-69
2021/04/17 11:54:41;;;;;;;;;;;;;;;12.40;41.40;101872.22;5054487;28;20371;-66
2021/04/17 11:57:07;;;;;;;;;;;;;;;12.17;42.71;101864.78;5054788;28;19921;-69
2021/04/17 11:59:51;;;;;;;;;;;;;;;11.96;42.83;101858.72;5054731;28;19924;-67
2021/04/17 12:02:18;;;;;;;;;;;;;;;12.05;43.16;101856.13;5054801;28;20372;-68
2021/04/17 12:04:45;;;;;;;;;;;;;;;12.22;41.75;101856.47;5052999;28;19925;-67
2021/04/17 12:07:12;;;;;;;;;;;;;;;12.20;41.01;101851.22;5053915;28;19921;-67
2021/04/17 12:09:38;;;;;;;;;;;;;;;12.26;41.54;101852.81;5054093;28;19931;-68
2021/04/17 12:12:05;;;;;;;;;;;;;;;12.62;40.99;101861.44;5053709;28;19920;-70
2021/04/17 12:14:32;;;;;;;;;;;;;;;12.48;40.40;101851.41;5068387;28;19921;-69
2021/04/17 12:16:58;;;;;;;;;;;;;;;12.42;41.33;101858.94;5054134;28;19929;-66
2021/04/17 12:19:26;;;;;;;;;;;;;;;12.35;40.60;101848.25;5054567;28;19932;-65
2021/04/17 12:21:52;;;;;;;;;;;;;;;12.42;40.95;101840.44;5054405;28;19921;-67
2021/04/17 12:24:19;;;;;;;;;;;;;;;12.38;41.13;101844.91;5054898;28;19932;-67
2021/04/17 12:26:46;;;;;;;;;;;;;;;12.16;41.13;101861.25;5054627;28;19925;-65
2021/04/17 12:29:12;;;;;;;;;;;;;;;12.28;39.74;101853.34;5035935;28;20260;-68
2021/04/17 12:31:39;;;;;;;;;;;;;;;12.48;39.36;101843.94;5036544;28;20336;-68
2021/04/17 12:34:06;;;;;;;;;;;;;;;12.46;39.21;101829.59;5036221;28;19920;-68
2021/04/17 12:36:33;;;;;;;;;;;;;;;12.62;39.30;101839.31;5053866;28;19932;-68
2021/04/17 12:39:03;;;;;;;;;;;;;;;12.65;38.78;101833.16;5054865;28;19920;-67
2021/04/17 12:41:49;;;;;;;;;;;;;;;12.76;38.96;101826.34;5053258;28;19917;-70
2021/04/17 12:44:17;;;;;;;;;;;;;;;12.95;39.43;101823.56;5053981;28;19921;-68
2021/04/17 12:46:43;;;;;;;;;;;;;;;13.09;39.76;101818.94;5036089;28;19943;-69
2021/04/17 12:49:19;;;;;;;;;;;;;;;13.36;38.84;101830.88;5050556;28;19927;-69
2021/04/17 12:51:46;;;;;;;;;;;;;;;12.82;37.72;101833.44;5053827;28;20257;-67
2021/04/17 12:54:18;;;;;;;;;;;;;;;12.44;37.85;101831.84;5046818;28;20426;-68
2021/04/17 12:56:45;;;;;;;;;;;;;;;12.61;38.04;101823.00;5054010;28;19925;-66
2021/04/17 12:59:12;;;;;;;;;;;;;;;12.88;37.22;101825.91;5053745;28;19920;-65
2021/04/17 13:01:41;;;;;;;;;;;;;;;12.79;37.40;101822.16;5053361;28;20358;-68
2021/04/17 13:04:26;;;;;;;;;;;;;;;12.84;37.36;101817.38;5052607;28;19917;-67
2021/04/17 13:06:53;;;;;;;;;;;;;;;12.87;37.73;101816.78;5052492;28;19921;-68
2021/04/17 13:09:20;;;;;;;;;;;;;;;13.13;37.35;101804.19;5035805;28;19920;-67
2021/04/17 13:11:46;;;;;;;;;;;;;;;13.34;36.81;101801.84;5054100;28;19928;-70
2021/04/17 13:14:15;;;;;;;;;;;;;;;13.11;37.49;101808.38;5053426;28;19920;-68
2021/04/17 13:16:47;;;;;;;;;;;;;;;12.99;37.20;101808.81;5051537;28;19920;-68
2021/04/17 13:19:15;;;;;;;;;;;;;;;12.59;37.73;101794.88;5053190;28;19921;-64
2021/04/17 13:21:42;;;;;;;;;;;;;;;12.93;37.67;101798.97;5067970;28;19920;-68
2021/04/17 13:28:27;;;;;;;;;;;;;;;12.99;36.22;101814.34;5054141;28;19939;-68
2021/04/17 13:30:53;;;;;;;;;;;;;;;12.91;36.99;101790.16;5053966;28;19920;-66
2021/04/17 13:33:20;;;;;;;;;;;;;;;13.07;36.77;101788.81;5068637;28;19992;-67
2021/04/17 13:35:50;;;;;;;;;;;;;;;12.96;36.86;101790.06;5052421;28;19920;-68
2021/04/17 13:38:17;;;;;;;;;;;;;;;13.20;35.68;101804.59;5053020;28;19921;-69